createdAt,value
2022-08-11T00:00:57.944Z,0.00
2022-08-11T00:01:57.922Z,0.00
2022-08-11T00:02:57.954Z,0.00
2022-08-11T00:03:57.907Z,0.00
2022-08-11T00:04:57.892Z,0.00
2022-08-11T00:05:57.900Z,0.00
2022-08-11T00:06:57.875Z,0.00
2022-08-11T00:07:57.860Z,0.00
2022-08-11T00:08:57.843Z,0.00
2022-08-11T00:09:57.844Z,0.00
2022-08-11T00:10:57.845Z,0.00
2022-08-11T00:11:58.727Z,0.00
2022-08-11T00:12:57.806Z,0.00
2022-08-11T00:13:57.796Z,0.00
2022-08-11T00:14:57.787Z,0.00
2022-08-11T00:15:57.775Z,0.00
2022-08-11T00:16:57.795Z,0.00
2022-08-11T00:17:57.753Z,0.00
2022-08-11T00:18:57.760Z,0.00
2022-08-11T00:20:13.794Z,0.00
2022-08-11T00:20:58.737Z,0.00
2022-08-11T00:22:04.661Z,0.00
2022-08-11T00:22:58.714Z,0.00
2022-08-11T00:23:57.699Z,0.00
2022-08-11T00:25:02.070Z,0.00
2022-08-11T00:25:57.685Z,0.00
2022-08-11T00:26:57.684Z,0.00
2022-08-11T00:27:57.663Z,0.00
2022-08-11T00:28:57.651Z,0.00
2022-08-11T00:29:57.642Z,0.00
2022-08-11T00:30:57.629Z,0.00
2022-08-11T00:31:57.652Z,0.00
2022-08-11T00:32:57.606Z,0.00
2022-08-11T00:33:57.604Z,0.00
2022-08-11T00:35:51.305Z,0.00
2022-08-11T00:35:58.581Z,0.00
2022-08-11T00:36:58.584Z,0.00
2022-08-11T00:37:57.559Z,0.00
2022-08-11T00:38:57.548Z,0.00
2022-08-11T00:39:57.581Z,0.00
2022-08-11T00:40:57.535Z,0.00
2022-08-11T00:41:57.545Z,0.00
2022-08-11T00:42:57.520Z,0.00
2022-08-11T00:43:57.500Z,0.00
2022-08-11T00:44:57.490Z,0.00
2022-08-11T00:45:57.477Z,0.00
2022-08-11T00:46:57.491Z,0.00
2022-08-11T00:48:00.298Z,0.00
2022-08-11T00:48:57.449Z,0.00
2022-08-11T00:49:57.449Z,0.00
2022-08-11T00:50:57.429Z,0.00
2022-08-11T00:52:05.034Z,0.00
2022-08-11T00:52:57.417Z,0.00
2022-08-11T00:53:57.401Z,0.00
2022-08-11T00:54:57.393Z,0.00
2022-08-11T00:55:57.381Z,0.00
2022-08-11T00:56:57.386Z,0.00
2022-08-11T00:57:57.366Z,0.00
2022-08-11T00:58:57.348Z,0.00
2022-08-11T00:59:57.338Z,0.00
2022-08-11T01:00:57.363Z,0.00
2022-08-11T01:01:57.343Z,0.00
2022-08-11T01:02:57.314Z,0.00
2022-08-11T01:03:57.298Z,0.00
2022-08-11T01:04:57.283Z,0.00
2022-08-11T01:05:57.281Z,0.00
2022-08-11T01:06:57.292Z,0.00
2022-08-11T01:08:02.199Z,0.00
2022-08-11T01:08:57.259Z,0.00
2022-08-11T01:09:57.239Z,0.00
2022-08-11T01:10:57.219Z,0.00
2022-08-11T01:11:57.231Z,0.00
2022-08-11T01:12:57.207Z,0.00
2022-08-11T01:13:57.225Z,0.00
2022-08-11T01:14:57.197Z,0.00
2022-08-11T01:15:57.583Z,0.00
2022-08-11T01:16:57.190Z,0.00
2022-08-11T01:17:57.158Z,0.00
2022-08-11T01:18:57.164Z,0.00
2022-08-11T01:20:45.325Z,0.00
2022-08-11T01:20:58.133Z,0.00
2022-08-11T01:21:57.147Z,0.00
2022-08-11T01:22:57.117Z,0.00
2022-08-11T01:23:57.109Z,0.00
2022-08-11T01:24:57.094Z,0.00
2022-08-11T01:25:57.908Z,0.00
2022-08-11T01:26:57.090Z,0.00
2022-08-11T01:27:57.067Z,0.00
2022-08-11T01:28:57.052Z,0.00
2022-08-11T01:29:57.077Z,0.00
2022-08-11T01:30:57.030Z,0.00
2022-08-11T01:31:57.040Z,0.00
2022-08-11T01:32:57.018Z,0.00
2022-08-11T01:33:57.002Z,0.00
2022-08-11T01:34:56.982Z,0.00
2022-08-11T01:35:56.981Z,0.00
2022-08-11T01:36:57.310Z,0.00
2022-08-11T01:37:56.964Z,0.00
2022-08-11T01:38:56.954Z,0.00
2022-08-11T01:39:57.000Z,0.00
2022-08-11T01:40:56.932Z,0.00
2022-08-11T01:41:56.937Z,0.00
2022-08-11T01:42:56.902Z,0.00
2022-08-11T01:43:56.901Z,0.00
2022-08-11T01:44:56.892Z,0.00
2022-08-11T01:45:56.892Z,0.00
2022-08-11T01:46:56.884Z,0.00
2022-08-11T01:47:56.854Z,0.00
2022-08-11T01:48:56.853Z,0.00
2022-08-11T01:50:06.968Z,0.00
2022-08-11T01:50:57.824Z,0.00
2022-08-11T01:51:56.864Z,0.00
2022-08-11T01:52:56.806Z,0.00
2022-08-11T01:53:56.825Z,0.00
2022-08-11T01:54:56.801Z,0.00
2022-08-11T01:55:56.786Z,0.00
2022-08-11T01:56:56.794Z,0.00
2022-08-11T01:57:56.784Z,0.00
2022-08-11T01:58:56.740Z,0.00
2022-08-11T01:59:56.735Z,0.00
2022-08-11T02:00:56.779Z,0.00
2022-08-11T02:01:56.743Z,0.00
2022-08-11T02:02:56.711Z,0.00
2022-08-11T02:03:56.703Z,0.00
2022-08-11T02:04:56.689Z,0.00
2022-08-11T02:05:56.682Z,0.00
2022-08-11T02:06:56.693Z,0.00
2022-08-11T02:07:56.661Z,0.00
2022-08-11T02:08:56.661Z,0.00
2022-08-11T02:09:56.638Z,0.00
2022-08-11T02:10:56.630Z,0.00
2022-08-11T02:11:56.637Z,0.00
2022-08-11T02:12:56.623Z,0.00
2022-08-11T02:13:56.600Z,0.00
2022-08-11T02:15:05.399Z,0.00
2022-08-11T02:15:56.585Z,0.00
2022-08-11T02:16:56.585Z,0.00
2022-08-11T02:17:56.567Z,0.00
2022-08-11T02:18:56.540Z,0.00
2022-08-11T02:19:56.534Z,0.00
2022-08-11T02:20:56.527Z,0.00
2022-08-11T02:21:56.543Z,0.00
2022-08-11T02:22:56.511Z,0.00
2022-08-11T02:24:06.070Z,0.00
2022-08-11T02:24:57.485Z,0.00
2022-08-11T02:25:56.480Z,0.00
2022-08-11T02:26:56.498Z,0.00
2022-08-11T02:27:56.457Z,0.00
2022-08-11T02:28:56.456Z,0.00
2022-08-11T02:29:56.438Z,0.00
2022-08-11T02:30:56.429Z,0.00
2022-08-11T02:32:05.132Z,0.00
2022-08-11T02:32:57.430Z,0.00
2022-08-11T02:33:56.415Z,0.00
2022-08-11T02:34:59.411Z,0.00
2022-08-11T02:35:56.377Z,0.00
2022-08-11T02:36:56.383Z,0.00
2022-08-11T02:37:56.358Z,0.00
2022-08-11T02:38:56.348Z,0.00
2022-08-11T02:39:56.339Z,0.00
2022-08-11T02:40:56.334Z,0.00
2022-08-11T02:41:56.339Z,0.00
2022-08-11T02:42:56.298Z,0.00
2022-08-11T02:43:56.299Z,0.00
2022-08-11T02:44:56.288Z,0.00
2022-08-11T02:45:56.286Z,0.00
2022-08-11T02:46:56.291Z,0.00
2022-08-11T02:47:56.261Z,0.00
2022-08-11T02:48:56.252Z,0.00
2022-08-11T02:50:02.750Z,0.00
2022-08-11T02:50:57.224Z,0.00
2022-08-11T02:51:56.243Z,0.00
2022-08-11T02:52:56.218Z,0.00
2022-08-11T02:53:58.182Z,0.00
2022-08-11T02:54:56.209Z,0.00
2022-08-11T02:55:58.215Z,0.00
2022-08-11T02:56:56.192Z,0.00
2022-08-11T02:57:56.218Z,0.00
2022-08-11T02:58:56.148Z,0.00
2022-08-11T02:59:56.145Z,0.00
2022-08-11T03:00:56.132Z,0.00
2022-08-11T03:02:04.582Z,0.00
2022-08-11T03:02:57.112Z,0.00
2022-08-11T03:03:56.099Z,0.00
2022-08-11T03:04:56.102Z,0.00
2022-08-11T03:05:56.084Z,0.00
2022-08-11T03:06:56.097Z,0.00
2022-08-11T03:07:56.061Z,0.00
2022-08-11T03:08:56.053Z,0.00
2022-08-11T03:09:56.044Z,0.00
2022-08-11T03:10:56.033Z,0.00
2022-08-11T03:11:56.046Z,0.00
2022-08-11T03:12:56.040Z,0.00
2022-08-11T03:13:56.004Z,0.00
2022-08-11T03:14:55.985Z,0.00
2022-08-11T03:15:55.982Z,0.00
2022-08-11T03:16:55.967Z,0.00
2022-08-11T03:17:55.976Z,4.00
2022-08-11T03:18:55.936Z,0.00
2022-08-11T03:19:55.941Z,0.00
2022-08-11T03:20:55.928Z,0.00
2022-08-11T03:22:03.647Z,4.00
2022-08-11T03:22:56.920Z,0.00
2022-08-11T03:23:55.903Z,4.00
2022-08-11T03:24:55.890Z,4.00
2022-08-11T03:25:55.873Z,4.00
2022-08-11T03:26:55.865Z,8.00
2022-08-11T03:27:55.868Z,4.00
2022-08-11T03:28:55.848Z,4.00
2022-08-11T03:29:55.840Z,8.00
2022-08-11T03:30:55.824Z,8.00
2022-08-11T03:31:55.815Z,12.00
2022-08-11T03:32:55.828Z,12.00
2022-08-11T03:33:55.794Z,12.00
2022-08-11T03:34:55.776Z,12.00
2022-08-11T03:35:55.777Z,16.00
2022-08-11T03:37:16.786Z,20.00
2022-08-11T03:37:56.839Z,20.00
2022-08-11T03:38:55.750Z,24.00
2022-08-11T03:39:56.842Z,28.00
2022-08-11T03:40:55.725Z,36.00
2022-08-11T03:42:01.755Z,40.00
2022-08-11T03:42:56.724Z,48.00
2022-08-11T03:43:58.135Z,52.00
2022-08-11T03:44:55.683Z,60.00
2022-08-11T03:45:55.677Z,68.00
2022-08-11T03:46:55.650Z,76.00
2022-08-11T03:47:55.924Z,88.00
2022-08-11T03:48:55.640Z,96.00
2022-08-11T03:49:55.631Z,112.00
2022-08-11T03:50:55.817Z,124.00
2022-08-11T03:51:55.610Z,140.00
2022-08-11T03:52:55.621Z,160.00
2022-08-11T03:53:55.595Z,172.00
2022-08-11T03:54:55.576Z,192.00
2022-08-11T03:55:55.566Z,212.00
2022-08-11T03:56:55.561Z,232.00
2022-08-11T03:57:55.567Z,260.00
2022-08-11T03:58:55.535Z,284.00
2022-08-11T03:59:55.533Z,308.00
2022-08-11T04:00:55.529Z,336.00
2022-08-11T04:01:55.583Z,368.00
2022-08-11T04:02:55.520Z,400.00
2022-08-11T04:03:55.492Z,432.00
2022-08-11T04:04:55.487Z,460.00
2022-08-11T04:05:55.476Z,500.00
2022-08-11T04:06:55.466Z,536.00
2022-08-11T04:07:55.475Z,576.00
2022-08-11T04:08:55.444Z,616.00
2022-08-11T04:09:55.510Z,660.00
2022-08-11T04:11:27.334Z,704.00
2022-08-11T04:11:55.418Z,752.00
2022-08-11T04:12:55.443Z,800.00
2022-08-11T04:13:55.386Z,848.00
2022-08-11T04:14:55.384Z,900.00
2022-08-11T04:15:55.377Z,952.00
2022-08-11T04:16:55.369Z,1004.00
2022-08-11T04:17:55.370Z,1060.00
2022-08-11T04:18:55.344Z,1112.00
2022-08-11T04:19:55.332Z,1172.00
2022-08-11T04:20:55.324Z,1232.00
2022-08-11T04:21:55.311Z,1292.00
2022-08-11T04:22:55.326Z,1352.00
2022-08-11T04:24:34.847Z,1416.00
2022-08-11T04:24:56.288Z,1480.00
2022-08-11T04:25:58.652Z,1544.00
2022-08-11T04:26:55.266Z,1608.00
2022-08-11T04:27:55.269Z,1672.00
2022-08-11T04:28:55.242Z,1736.00
2022-08-11T04:30:02.966Z,1804.00
2022-08-11T04:30:56.225Z,1868.00
2022-08-11T04:31:55.214Z,1936.00
2022-08-11T04:32:55.224Z,2000.00
2022-08-11T04:33:56.558Z,2068.00
2022-08-11T04:34:55.182Z,2136.00
2022-08-11T04:35:55.176Z,2200.00
2022-08-11T04:36:55.162Z,2268.00
2022-08-11T04:37:55.168Z,2336.00
2022-08-11T04:38:55.161Z,2396.00
2022-08-11T04:39:55.185Z,2464.00
2022-08-11T04:40:55.122Z,2532.00
2022-08-11T04:41:55.109Z,2596.00
2022-08-11T04:42:55.114Z,2660.00
2022-08-11T04:44:02.667Z,2720.00
2022-08-11T04:44:56.106Z,2784.00
2022-08-11T04:45:55.059Z,2844.00
2022-08-11T04:46:55.065Z,2904.00
2022-08-11T04:48:01.842Z,2968.00
2022-08-11T04:48:56.061Z,3028.00
2022-08-11T04:49:55.021Z,3088.00
2022-08-11T04:51:04.005Z,3148.00
2022-08-11T04:51:56.005Z,3208.00
2022-08-11T04:52:54.997Z,3268.00
2022-08-11T04:53:55.016Z,3328.00
2022-08-11T04:54:54.976Z,3384.00
2022-08-11T04:55:54.971Z,3444.00
2022-08-11T04:56:54.956Z,3504.00
2022-08-11T04:57:54.944Z,3560.00
2022-08-11T04:58:54.953Z,3616.00
2022-08-11T04:59:54.924Z,3672.00
2022-08-11T05:00:54.923Z,3732.00
2022-08-11T05:01:54.940Z,3788.00
2022-08-11T05:02:54.897Z,3844.00
2022-08-11T05:03:54.889Z,3896.00
2022-08-11T05:04:54.886Z,3952.00
2022-08-11T05:05:56.765Z,4004.00
2022-08-11T05:06:54.854Z,4056.00
2022-08-11T05:07:54.845Z,4104.00
2022-08-11T05:08:54.849Z,4152.00
2022-08-11T05:09:54.823Z,4200.00
2022-08-11T05:10:54.810Z,4244.00
2022-08-11T05:11:57.997Z,4296.00
2022-08-11T05:12:54.787Z,4344.00
2022-08-11T05:13:54.803Z,4392.00
2022-08-11T05:14:54.773Z,4440.00
2022-08-11T05:15:54.762Z,4488.00
2022-08-11T05:16:54.743Z,4536.00
2022-08-11T05:17:54.745Z,4576.00
2022-08-11T05:18:54.730Z,4620.00
2022-08-11T05:19:54.735Z,4664.00
2022-08-11T05:20:54.715Z,4712.00
2022-08-11T05:21:54.701Z,4756.00
2022-08-11T05:22:55.192Z,4800.00
2022-08-11T05:23:54.680Z,4848.00
2022-08-11T05:24:54.678Z,4888.00
2022-08-11T05:26:44.640Z,4936.00
2022-08-11T05:26:55.652Z,4980.00
2022-08-11T05:27:54.645Z,5024.00
2022-08-11T05:28:54.655Z,5072.00
2022-08-11T05:29:54.646Z,5112.00
2022-08-11T05:30:54.609Z,5156.00
2022-08-11T05:31:54.602Z,5196.00
2022-08-11T05:32:59.343Z,5236.00
2022-08-11T05:33:55.582Z,5272.00
2022-08-11T05:34:54.814Z,5320.00
2022-08-11T05:36:00.040Z,5356.00
2022-08-11T05:36:59.193Z,5396.00
2022-08-11T05:37:55.537Z,5436.00
2022-08-11T05:38:54.535Z,5476.00
2022-08-11T05:39:54.600Z,5512.00
2022-08-11T05:41:00.107Z,5552.00
2022-08-11T05:41:55.502Z,5588.00
2022-08-11T05:42:54.489Z,5624.00
2022-08-11T05:44:20.839Z,5664.00
2022-08-11T05:44:55.476Z,5700.00
2022-08-11T05:46:02.743Z,5736.00
2022-08-11T05:46:55.449Z,5776.00
2022-08-11T05:47:54.437Z,5808.00
2022-08-11T05:48:54.430Z,5848.00
2022-08-11T05:49:54.434Z,5880.00
2022-08-11T05:50:54.405Z,5916.00
2022-08-11T05:51:55.479Z,5952.00
2022-08-11T05:52:56.617Z,5992.00
2022-08-11T05:53:54.373Z,6032.00
2022-08-11T05:54:54.629Z,6072.00
2022-08-11T05:56:02.598Z,6112.00
2022-08-11T05:56:54.346Z,6160.00
2022-08-11T05:57:54.343Z,6200.00
2022-08-11T05:58:54.341Z,6236.00
2022-08-11T05:59:54.330Z,6272.00
2022-08-11T06:00:54.307Z,6308.00
2022-08-11T06:01:54.318Z,6348.00
2022-08-11T06:02:54.289Z,6384.00
2022-08-11T06:03:58.478Z,6420.00
2022-08-11T06:04:54.284Z,6456.00
2022-08-11T06:05:54.266Z,6492.00
2022-08-11T06:06:54.251Z,6520.00
2022-08-11T06:07:54.236Z,6556.00
2022-08-11T06:08:54.225Z,6588.00
2022-08-11T06:09:54.238Z,6628.00
2022-08-11T06:10:54.201Z,6660.00
2022-08-11T06:11:54.192Z,6696.00
2022-08-11T06:12:55.187Z,6728.00
2022-08-11T06:13:54.175Z,6760.00
2022-08-11T06:14:54.191Z,6784.00
2022-08-11T06:15:54.174Z,6820.00
2022-08-11T06:16:54.145Z,6852.00
2022-08-11T06:17:54.132Z,6880.00
2022-08-11T06:18:54.136Z,6916.00
2022-08-11T06:19:54.149Z,6948.00
2022-08-11T06:20:54.106Z,6980.00
2022-08-11T06:21:54.099Z,7012.00
2022-08-11T06:22:54.092Z,7040.00
2022-08-11T06:23:54.069Z,7076.00
2022-08-11T06:24:55.078Z,7108.00
2022-08-11T06:25:56.386Z,7136.00
2022-08-11T06:27:12.825Z,7164.00
2022-08-11T06:27:56.043Z,7196.00
2022-08-11T06:28:54.014Z,7220.00
2022-08-11T06:29:54.970Z,7248.00
2022-08-11T06:30:54.009Z,7272.00
2022-08-11T06:31:54.003Z,7304.00
2022-08-11T06:32:53.986Z,7324.00
2022-08-11T06:33:53.978Z,7348.00
2022-08-11T06:34:53.982Z,7376.00
2022-08-11T06:35:53.965Z,7404.00
2022-08-11T06:36:53.941Z,7432.00
2022-08-11T06:37:58.766Z,7456.00
2022-08-11T06:38:54.930Z,7484.00
2022-08-11T06:39:53.997Z,7500.00
2022-08-11T06:40:53.900Z,7524.00
2022-08-11T06:41:53.897Z,7544.00
2022-08-11T06:42:53.899Z,7564.00
2022-08-11T06:43:55.324Z,7588.00
2022-08-11T06:44:53.871Z,7616.00
2022-08-11T06:45:53.851Z,7632.00
2022-08-11T06:46:53.841Z,7656.00
2022-08-11T06:47:53.832Z,7672.00
2022-08-11T06:48:53.814Z,7688.00
2022-08-11T06:49:53.838Z,7708.00
2022-08-11T06:50:53.797Z,7724.00
2022-08-11T06:51:53.799Z,7744.00
2022-08-11T06:52:53.774Z,7756.00
2022-08-11T06:54:03.440Z,7776.00
2022-08-11T06:54:54.775Z,7796.00
2022-08-11T06:55:57.233Z,7816.00
2022-08-11T06:57:06.635Z,7828.00
2022-08-11T06:57:55.784Z,7852.00
2022-08-11T06:58:53.770Z,7872.00
2022-08-11T06:59:53.734Z,7884.00
2022-08-11T07:00:53.708Z,7900.00
2022-08-11T07:01:53.742Z,7912.00
2022-08-11T07:02:53.690Z,7924.00
2022-08-11T07:03:53.678Z,7944.00
2022-08-11T07:04:53.675Z,7960.00
2022-08-11T07:05:53.660Z,7980.00
2022-08-11T07:06:53.657Z,7996.00
2022-08-11T07:07:53.645Z,8016.00
2022-08-11T07:08:53.643Z,8032.00
2022-08-11T07:09:53.632Z,8044.00
2022-08-11T07:10:53.605Z,8056.00
2022-08-11T07:11:53.594Z,8072.00
2022-08-11T07:12:53.602Z,8084.00
2022-08-11T07:13:53.576Z,8096.00
2022-08-11T07:14:59.926Z,8116.00
2022-08-11T07:16:10.669Z,8136.00
2022-08-11T07:16:54.555Z,8156.00
2022-08-11T07:17:53.541Z,8172.00
2022-08-11T07:18:53.522Z,8188.00
2022-08-11T07:19:56.939Z,8200.00
2022-08-11T07:20:53.510Z,8216.00
2022-08-11T07:22:02.928Z,8228.00
2022-08-11T07:22:54.496Z,8248.00
2022-08-11T07:23:53.483Z,8264.00
2022-08-11T07:25:01.712Z,8276.00
2022-08-11T07:25:54.462Z,8292.00
2022-08-11T07:26:53.452Z,8300.00
2022-08-11T07:27:53.447Z,8316.00
2022-08-11T07:28:53.435Z,8328.00
2022-08-11T07:29:53.464Z,8336.00
2022-08-11T07:30:54.120Z,8356.00
2022-08-11T07:31:53.408Z,8372.00
2022-08-11T07:32:53.395Z,8384.00
2022-08-11T07:34:07.748Z,8392.00
2022-08-11T07:34:54.395Z,8416.00
2022-08-11T07:35:53.369Z,8440.00
2022-08-11T07:36:53.366Z,8456.00
2022-08-11T07:38:01.568Z,8472.00
2022-08-11T07:38:54.343Z,8480.00
2022-08-11T07:39:53.412Z,8492.00
2022-08-11T07:40:53.315Z,8500.00
2022-08-11T07:41:53.310Z,8512.00
2022-08-11T07:42:53.295Z,8528.00
2022-08-11T07:43:53.281Z,8540.00
2022-08-11T07:44:53.291Z,8556.00
2022-08-11T07:45:53.265Z,8564.00
2022-08-11T07:46:53.262Z,8576.00
2022-08-11T07:47:53.386Z,8592.00
2022-08-11T07:48:53.244Z,8592.00
2022-08-11T07:49:53.272Z,8604.00
2022-08-11T07:50:56.114Z,8612.00
2022-08-11T07:51:54.200Z,8620.00
2022-08-11T07:52:53.974Z,8628.00
2022-08-11T07:53:58.672Z,8644.00
2022-08-11T07:54:54.189Z,8648.00
2022-08-11T07:55:53.528Z,8656.00
2022-08-11T07:56:55.245Z,8664.00
2022-08-11T07:58:15.090Z,8680.00
2022-08-11T07:58:57.598Z,8680.00
2022-08-11T08:00:00.906Z,8688.00
2022-08-11T08:00:54.112Z,8700.00
2022-08-11T08:01:53.146Z,8708.00
2022-08-11T08:02:54.098Z,8720.00
2022-08-11T08:03:53.932Z,8728.00
2022-08-11T08:04:53.083Z,8728.00
2022-08-11T08:05:53.067Z,8744.00
2022-08-11T08:06:53.069Z,8756.00
2022-08-11T08:07:53.785Z,8756.00
2022-08-11T08:08:53.035Z,8768.00
2022-08-11T08:09:53.043Z,8780.00
2022-08-11T08:10:53.010Z,8796.00
2022-08-11T08:11:52.992Z,8800.00
2022-08-11T08:12:52.998Z,8808.00
2022-08-11T08:13:52.990Z,8812.00
2022-08-11T08:14:52.994Z,8816.00
2022-08-11T08:15:52.955Z,8836.00
2022-08-11T08:16:52.952Z,8840.00
2022-08-11T08:18:09.041Z,8848.00
2022-08-11T08:18:53.935Z,8860.00
2022-08-11T08:19:52.928Z,8868.00
2022-08-11T08:20:52.913Z,8876.00
2022-08-11T08:21:52.906Z,8884.00
2022-08-11T08:22:53.346Z,8888.00
2022-08-11T08:23:53.928Z,8900.00
2022-08-11T08:24:52.890Z,8896.00
2022-08-11T08:25:52.860Z,8912.00
2022-08-11T08:26:52.853Z,8924.00
2022-08-11T08:27:52.825Z,8928.00
2022-08-11T08:28:52.830Z,8948.00
2022-08-11T08:29:52.835Z,8952.00
2022-08-11T08:30:52.813Z,8948.00
2022-08-11T08:31:52.798Z,8944.00
2022-08-11T08:32:52.786Z,8976.00
2022-08-11T08:33:52.790Z,8984.00
2022-08-11T08:34:52.788Z,9000.00
2022-08-11T08:35:55.611Z,9000.00
2022-08-11T08:36:52.753Z,8868.00
2022-08-11T08:37:52.739Z,9028.00
2022-08-11T08:38:52.733Z,9040.00
2022-08-11T08:39:52.766Z,9040.00
2022-08-11T08:40:55.629Z,9048.00
2022-08-11T08:41:52.692Z,9036.00
2022-08-11T08:42:52.681Z,9056.00
2022-08-11T08:43:52.691Z,9064.00
2022-08-11T08:44:52.677Z,9072.00
2022-08-11T08:45:52.652Z,9076.00
2022-08-11T08:46:52.642Z,9076.00
2022-08-11T08:47:53.495Z,9088.00
2022-08-11T08:48:53.582Z,9092.00
2022-08-11T08:49:52.626Z,9100.00
2022-08-11T08:50:52.601Z,9108.00
2022-08-11T08:52:02.575Z,9072.00
2022-08-11T08:52:53.586Z,9060.00
2022-08-11T08:53:53.744Z,9128.00
2022-08-11T08:54:53.577Z,9120.00
2022-08-11T08:55:52.562Z,9140.00
2022-08-11T08:56:52.550Z,9148.00
2022-08-11T08:57:52.546Z,9148.00
2022-08-11T08:58:52.531Z,9164.00
2022-08-11T08:59:52.541Z,9168.00
2022-08-11T09:00:52.553Z,9160.00
2022-08-11T09:01:52.506Z,9172.00
2022-08-11T09:02:52.603Z,9176.00
2022-08-11T09:04:05.413Z,9164.00
2022-08-11T09:04:53.494Z,9156.00
2022-08-11T09:05:52.466Z,9192.00
2022-08-11T09:06:52.546Z,9192.00
2022-08-11T09:07:52.441Z,9188.00
2022-08-11T09:08:52.481Z,9164.00
2022-08-11T09:09:52.450Z,9192.00
2022-08-11T09:10:52.402Z,9204.00
2022-08-11T09:11:52.415Z,9232.00
2022-08-11T09:12:52.396Z,9232.00
2022-08-11T09:14:03.302Z,9228.00
2022-08-11T09:14:53.391Z,9220.00
2022-08-11T09:15:56.250Z,9252.00
2022-08-11T09:16:53.357Z,9260.00
2022-08-11T09:17:52.347Z,9280.00
2022-08-11T09:18:52.338Z,9284.00
2022-08-11T09:19:56.600Z,9296.00
2022-08-11T09:20:53.325Z,9300.00
2022-08-11T09:21:52.301Z,9324.00
2022-08-11T09:23:19.312Z,9320.00
2022-08-11T09:24:16.882Z,9348.00
2022-08-11T09:24:54.292Z,9356.00
2022-08-11T09:25:52.257Z,9368.00
2022-08-11T09:26:52.268Z,9376.00
2022-08-11T09:27:52.251Z,9376.00
2022-08-11T09:28:52.241Z,9304.00
2022-08-11T09:29:52.231Z,9348.00
2022-08-11T09:30:52.228Z,9312.00
2022-08-11T09:31:52.223Z,9368.00
2022-08-11T09:32:52.204Z,9392.00
2022-08-11T09:33:52.189Z,9384.00
2022-08-11T09:34:54.007Z,9408.00
2022-08-11T09:35:52.196Z,9412.00
2022-08-11T09:36:52.199Z,9468.00
2022-08-11T09:37:54.104Z,9384.00
2022-08-11T09:38:52.135Z,9148.00
2022-08-11T09:39:52.192Z,9088.00
2022-08-11T09:40:56.287Z,9320.00
2022-08-11T09:42:00.707Z,9188.00
2022-08-11T09:42:52.123Z,9376.00
2022-08-11T09:43:52.100Z,9444.00
2022-08-11T09:44:52.111Z,9416.00
2022-08-11T09:45:52.094Z,9400.00
2022-08-11T09:46:52.070Z,9380.00
2022-08-11T09:47:52.068Z,9380.00
2022-08-11T09:48:52.046Z,9432.00
2022-08-11T09:49:52.037Z,9424.00
2022-08-11T09:50:52.037Z,9440.00
2022-08-11T09:52:02.222Z,9496.00
2022-08-11T09:53:35.123Z,9488.00
2022-08-11T09:54:03.843Z,9480.00
2022-08-11T09:54:51.979Z,9412.00
2022-08-11T09:55:52.022Z,9360.00
2022-08-11T09:56:51.973Z,9420.00
2022-08-11T09:57:51.951Z,9452.00
2022-08-11T09:58:51.941Z,9468.00
2022-08-11T09:59:51.943Z,9484.00
2022-08-11T10:00:53.018Z,9532.00
2022-08-11T10:01:51.923Z,9488.00
2022-08-11T10:02:53.163Z,9496.00
2022-08-11T10:03:51.904Z,9488.00
2022-08-11T10:04:51.907Z,9472.00
2022-08-11T10:05:51.893Z,9508.00
2022-08-11T10:06:54.435Z,9528.00
2022-08-11T10:07:51.870Z,9532.00
2022-08-11T10:08:51.857Z,9556.00
2022-08-11T10:09:51.847Z,9576.00
2022-08-11T10:11:23.747Z,9588.00
2022-08-11T10:11:57.639Z,9576.00
2022-08-11T10:12:52.818Z,9564.00
2022-08-11T10:14:33.552Z,9572.00
2022-08-11T10:14:52.817Z,9588.00
2022-08-11T10:16:03.564Z,9588.00
2022-08-11T10:16:52.799Z,9604.00
2022-08-11T10:17:51.761Z,9604.00
2022-08-11T10:18:51.759Z,9580.00
2022-08-11T10:20:05.032Z,9612.00
2022-08-11T10:20:52.763Z,9612.00
2022-08-11T10:21:51.746Z,9616.00
2022-08-11T10:22:51.779Z,9608.00
2022-08-11T10:24:00.266Z,9616.00
2022-08-11T10:24:52.701Z,9604.00
2022-08-11T10:25:51.693Z,9616.00
2022-08-11T10:26:51.686Z,9608.00
2022-08-11T10:28:28.350Z,9616.00
2022-08-11T10:29:12.199Z,9608.00
2022-08-11T10:29:53.653Z,9596.00
2022-08-11T10:30:51.656Z,9604.00
2022-08-11T10:31:57.485Z,9620.00
2022-08-11T10:32:59.347Z,9600.00
2022-08-11T10:33:59.107Z,9600.00
2022-08-11T10:34:56.330Z,9580.00
2022-08-11T10:35:52.618Z,9584.00
2022-08-11T10:36:51.595Z,9596.00
2022-08-11T10:38:07.305Z,9604.00
2022-08-11T10:38:52.565Z,9628.00
2022-08-11T10:39:51.617Z,9640.00
2022-08-11T10:40:51.571Z,9640.00
2022-08-11T10:42:06.124Z,9636.00
2022-08-11T10:42:57.693Z,9624.00
2022-08-11T10:44:03.307Z,9624.00
2022-08-11T10:44:52.514Z,9612.00
2022-08-11T10:45:51.548Z,9616.00
2022-08-11T10:46:51.485Z,9604.00
2022-08-11T10:47:51.475Z,9616.00
2022-08-11T10:48:51.476Z,9604.00
2022-08-11T10:49:51.462Z,9608.00
2022-08-11T10:50:51.464Z,9624.00
2022-08-11T10:51:53.808Z,9608.00
2022-08-11T10:52:51.449Z,9608.00
2022-08-11T10:53:51.421Z,9592.00
2022-08-11T10:54:51.429Z,9608.00
2022-08-11T10:55:51.410Z,9608.00
2022-08-11T10:56:51.396Z,9640.00
2022-08-11T10:58:04.598Z,9640.00
2022-08-11T10:58:52.379Z,9656.00
2022-08-11T10:59:51.382Z,9672.00
2022-08-11T11:00:51.397Z,9688.00
2022-08-11T11:01:51.345Z,9696.00
2022-08-11T11:03:16.815Z,9688.00
2022-08-11T11:03:52.324Z,9684.00
2022-08-11T11:04:51.406Z,9728.00
2022-08-11T11:06:27.405Z,9752.00
2022-08-11T11:06:52.295Z,9748.00
2022-08-11T11:07:51.288Z,9760.00
2022-08-11T11:08:51.285Z,9776.00
2022-08-11T11:09:51.272Z,9780.00
2022-08-11T11:10:51.260Z,9776.00
2022-08-11T11:11:51.256Z,9764.00
2022-08-11T11:12:51.238Z,9732.00
2022-08-11T11:13:55.108Z,9772.00
2022-08-11T11:14:58.115Z,9768.00
2022-08-11T11:15:53.227Z,9776.00
2022-08-11T11:16:51.199Z,9788.00
2022-08-11T11:17:51.186Z,9776.00
2022-08-11T11:19:00.607Z,9748.00
2022-08-11T11:19:52.161Z,9764.00
2022-08-11T11:20:51.177Z,9804.00
2022-08-11T11:21:51.150Z,9816.00
2022-08-11T11:22:51.135Z,9816.00
2022-08-11T11:23:51.126Z,9832.00
2022-08-11T11:24:51.135Z,9844.00
2022-08-11T11:25:55.446Z,9860.00
2022-08-11T11:26:51.099Z,9900.00
2022-08-11T11:27:51.088Z,9896.00
2022-08-11T11:28:51.074Z,9900.00
2022-08-11T11:29:51.059Z,9904.00
2022-08-11T11:30:51.094Z,9920.00
2022-08-11T11:31:51.051Z,9948.00
2022-08-11T11:32:51.040Z,9968.00
2022-08-11T11:34:06.359Z,9976.00
2022-08-11T11:34:53.612Z,9968.00
2022-08-11T11:35:51.029Z,9956.00
2022-08-11T11:36:50.997Z,9944.00
2022-08-11T11:38:03.579Z,9936.00
2022-08-11T11:38:51.982Z,9960.00
2022-08-11T11:39:51.008Z,9944.00
2022-08-11T11:40:50.982Z,9932.00
2022-08-11T11:41:50.954Z,9960.00
2022-08-11T11:42:50.939Z,9944.00
2022-08-11T11:43:50.930Z,10000.00
2022-08-11T11:44:55.316Z,10020.00
2022-08-11T11:45:51.935Z,10032.00
2022-08-11T11:46:50.905Z,10036.00
2022-08-11T11:47:50.897Z,9980.00
2022-08-11T11:48:50.880Z,10076.00
2022-08-11T11:49:50.863Z,10092.00
2022-08-11T11:50:52.191Z,10060.00
2022-08-11T11:51:50.854Z,9880.00
2022-08-11T11:52:50.853Z,9692.00
2022-08-11T11:53:50.825Z,10092.00
2022-08-11T11:54:50.826Z,10172.00
2022-08-11T11:55:50.832Z,10296.00
2022-08-11T11:56:50.804Z,10288.00
2022-08-11T11:57:58.741Z,10260.00
2022-08-11T11:58:50.784Z,10200.00
2022-08-11T11:59:50.774Z,10208.00
2022-08-11T12:00:50.784Z,10196.00
2022-08-11T12:01:52.804Z,10336.00
2022-08-11T12:02:50.777Z,10396.00
2022-08-11T12:03:50.738Z,10344.00
2022-08-11T12:04:50.722Z,10356.00
2022-08-11T12:05:50.725Z,10332.00
2022-08-11T12:06:50.697Z,10196.00
2022-08-11T12:07:56.978Z,10184.00
2022-08-11T12:08:51.687Z,10212.00
2022-08-11T12:09:50.672Z,10268.00
2022-08-11T12:10:50.678Z,10248.00
2022-08-11T12:11:50.669Z,10316.00
2022-08-11T12:12:50.643Z,10404.00
2022-08-11T12:13:50.626Z,10336.00
2022-08-11T12:14:50.619Z,10412.00
2022-08-11T12:16:31.987Z,10452.00
2022-08-11T12:16:51.595Z,10432.00
2022-08-11T12:17:52.816Z,10388.00
2022-08-11T12:18:51.899Z,10464.00
2022-08-11T12:19:50.577Z,10484.00
2022-08-11T12:20:50.584Z,10528.00
2022-08-11T12:21:51.456Z,10540.00
2022-08-11T12:22:50.541Z,10600.00
2022-08-11T12:23:50.532Z,10608.00
2022-08-11T12:24:50.516Z,10560.00
2022-08-11T12:26:10.043Z,10400.00